Sunday, December 16, 2018, 12:29 PM EST
Back to Local

KPHL, Philadelphia International Airpt

Location: Philadelphia, PA, United States Lat: 39.867
Local Time: 12:29 PM EST (17:29 GMT) Lon: -75.233
Time Zone: US/Eastern Elev: 19 ft

Show me the last for .
Show Decoded

2018-12-16 12:12 METAR KPHL 161712Z 04012G19KT 3SM R09R/5500VP6000FT -RA BR OVC009 06/04 A2983
                 RMK AO2 DZE12RAB12 CIG 008V011 P0001 T00610044 $ =
2018-12-16 11:54 METAR KPHL 161654Z 05015G22KT 5SM -DZ BR OVC009 06/05 A2983 RMK AO2 DZB47 SLP100
                 CIG 008V010 P0000 T00610050 $ =
2018-12-16 11:48 METAR KPHL 161648Z 05015G21KT 6SM -DZ BR OVC009 06/05 A2983 RMK AO2 DZB47 CIG
                 008V010 P0000 $ =
2018-12-16 10:54 METAR KPHL 161554Z 05015G20KT 10SM SCT007 OVC010 06/05 A2987 RMK AO2 SLP114
                 T00610050 $ =
2018-12-16 09:54 METAR KPHL 161454Z 05012G21KT 10SM SCT007 OVC010 06/05 A2991 RMK AO2 SLP127
                 60002 T00610050 58011 $ =
2018-12-16 08:54 METAR KPHL 161354Z 05017G21KT 10SM SCT007 OVC012 06/04 A2992 RMK AO2
                 RAB1255E06DZB06E23 SLP133 CIG 010V015 P0000 T00610044 $ =
2018-12-16 08:26 METAR KPHL 161326Z 05014G22KT 10SM SCT007 OVC011 06/04 A2993 RMK AO2
                 RAB1255E06DZB06E23 P0000 T00560044 $ =
2018-12-16 07:54 METAR KPHL 161254Z 06011G21KT 9SM SCT007 OVC011 06/04 A2994 RMK AO2 RAE51 SLP137
                 CIG 010V013 P0002 T00560044 $ =
2018-12-16 07:09 METAR KPHL 161209Z 06012G20KT 7SM -RA SCT007 OVC011 06/04 A2994 RMK AO2 CIG
                 010V014 P0001 T00560044 $ =
2018-12-16 06:54 METAR KPHL 161154Z 05013G22KT 3SM -RA BR SCT007 OVC011 06/04 A2994 RMK AO2
                 RAE19B39 SLP138 CIG 010V013 P0000 60062 70101 T00560044 10078 20050 58013 $ =
2018-12-16 06:50 METAR KPHL 161150Z 05014G22KT 3SM -RA BR SCT007 OVC011 06/04 A2994 RMK AO2
                 RAE19B39 CIG 010V013 P0000 $ =
2018-12-16 06:47 METAR KPHL 161147Z 06011G22KT 4SM -RA BR SCT007 OVC011 06/04 A2994 RMK AO2
                 RAE19B39 CIG 010V013 P0000 T00560044 $ =
2018-12-16 06:13 METAR KPHL 161113Z 05016G24KT 7SM -RA SCT007 OVC011 06/04 A2995 RMK AO2 CIG
                 010V013 P0000 T00560039 $ =
2018-12-16 05:54 METAR KPHL 161054Z 05014KT 5SM -RA BR OVC012 05/04 A2995 RMK AO2 SLP143 P0007
                 T00500044 $ =
2018-12-16 04:54 METAR KPHL 160954Z 05013G21KT 5SM -RA BR OVC011 06/04 A2997 RMK AO2 SLP150 P0005
                 T00560044 $ =
2018-12-16 03:54 METAR KPHL 160854Z 06015G27KT 5SM -RA BR OVC011 06/04 A2998 RMK AO2 PK WND
                 05031/0827 SLP151 P0008 60050 T00610044 51006 $ =
2018-12-16 03:44 METAR KPHL 160844Z 06015G23KT 5SM -RA BR OVC011 06/05 A2997 RMK AO2 PK WND
                 05031/0827 P0008 T00610050 $ =
2018-12-16 03:26 METAR KPHL 160826Z 06016G27KT 4SM RA BR OVC012 06/05 A2997 RMK AO2 PK WND
                 05028/0816 P0006 T00610050 $ =
2018-12-16 02:54 METAR KPHL 160754Z 06015G21KT 5SM RA BR OVC012 06/05 A2998 RMK AO2 SLP151 P0021
                 T00610050 $ =
2018-12-16 02:48 METAR KPHL 160748Z 06014G22KT 5SM -RA BR OVC012 06/05 A2998 RMK AO2 P0020 $ =
2018-12-16 01:54 METAR KPHL 160654Z 06016G26KT 3SM +RA BR OVC015 06/05 A2998 RMK AO2 PK WND
                 04026/0648 SLP150 P0021 T00610050 $ =
2018-12-16 01:40 METAR KPHL 160640Z 05015G24KT 4SM +RA BR OVC015 07/05 A2998 RMK AO2 P0012
                 T00670050 $ =
2018-12-16 01:09 METAR KPHL 160609Z 06014G24KT 5SM RA BR OVC018 07/06 A2997 RMK AO2 P0002
                 T00720056 $ =
2018-12-16 00:54 METAR KPHL 160554Z 07017G29KT 7SM RA OVC018 08/06 A2996 RMK AO2 PK WND
                 07029/0552 SLP145 P0006 60013 T00780061 10100 20078 56022 $ =
2018-12-15 23:54 METAR KPHL 160454Z 06012G22KT 9SM -RA OVC018 08/07 A2998 RMK AO2 SLP150 P0004
                 T00830067 401060083 $ =
2018-12-15 23:47 METAR KPHL 160447Z 06014G23KT 9SM -RA OVC018 08/07 A2998 RMK AO2 P0003 T00830067
                 $ =
2018-12-15 23:24 METAR KPHL 160424Z 06013G20KT 10SM -RA OVC020 08/07 A2999 RMK AO2 P0003
                 T00830067 $ =
2018-12-15 22:59 METAR KPHL 160359Z 07014G22KT 7SM RA OVC022 09/06 A3000 RMK AO2 P0002 T00890061
                 $ =
2018-12-15 22:54 METAR KPHL 160354Z 07012G20KT 10SM -RA OVC021 09/06 A3000 RMK AO2 RAB25 SLP159
                 P0000 T00890061 $ =
2018-12-15 22:13 METAR KPHL 160313Z 06011G19KT 10SM OVC021 09/06 A3002 RMK AO2 T00890061 $ =
2018-12-15 21:54 METAR KPHL 160254Z 05011G17KT 8SM BKN021 BKN039 OVC050 09/06 A3003 RMK AO2 RAE53
                 SLP167 P0002 60003 T00890061 58009 $ =
2018-12-15 21:27 METAR KPHL 160227Z 06011G21KT 7SM -RA OVC021 09/06 A3003 RMK AO2 P0002 T00890061
                 $ =
2018-12-15 20:54 METAR KPHL 160154Z 05010KT 10SM -RA OVC021 09/06 A3004 RMK AO2 RAB10 SLP173
                 P0001 T00890061 $ =
2018-12-15 19:54 METAR KPHL 160054Z 04014KT 10SM OVC021 10/06 A3007 RMK AO2 RAB13E38 SLP183 P0000
                 T01000061 $ =
2018-12-15 18:54 METAR KPHL 152354Z 04009KT 10SM BKN021 OVC110 10/08 A3005 RMK AO2 SLP176 60005
                 T01000078 10106 20100 53000 $ =
2018-12-15 18:42 METAR KPHL 152342Z 06008KT 10SM BKN021 OVC110 10/08 A3005 RMK AO2 T01000078 $ =
2018-12-15 17:54 METAR KPHL 152254Z 05007KT 8SM SCT025 BKN080 OVC100 10/08 A3005 RMK AO2 SLP174
                 T01000083 $ =
2018-12-15 17:14 METAR KPHL 152214Z 05008G16KT 7SM SCT015 BKN022 OVC110 10/09 A3003 RMK AO2
                 T01000089 $ =
2018-12-15 16:54 METAR KPHL 152154Z 05008KT 7SM FEW009 BKN015 OVC021 10/09 A3003 RMK AO2 DZE2057
                 SLP168 P0000 T01000089 $ =
2018-12-15 16:42 METAR KPHL 152142Z 05006KT 7SM SCT009 BKN015 OVC021 10/09 A3006 RMK AO2 DZE2057
                 P0000 T01000094 $ =
2018-12-15 15:54 METAR KPHL 152054Z 06008KT 4SM -DZ BR OVC006 10/09 A3005 RMK AO2 SLP176 P0000
                 60005 T01000094 55009 $ =
2018-12-15 15:31 METAR KPHL 152031Z 06007KT 4SM -DZ BR OVC005 10/09 A3004 RMK AO2 P0000 T01000094
                 $ =
2018-12-15 14:54 METAR KPHL 151954Z 05013KT 2 1/2SM -DZ BR BKN005 OVC012 10/09 A3002 RMK AO2 SFC
                 VIS 4 RAE23DZB34 SLP165 CIG 004V007 P0000 T01000094 $ =
2018-12-15 14:06 METAR KPHL 151906Z 05012G19KT 2 1/2SM -RA BR BKN005 OVC016 11/09 A3006 RMK AO2
                 SFC VIS 5 CIG 004V007 P0000 T01060094 $ =
2018-12-15 13:54 METAR KPHL 151854Z 05009KT 2 1/2SM -RA BR BKN004 OVC010 10/10 A3006 RMK AO2 SFC
                 VIS 4 SLP179 P0005 T01000100 $ =
2018-12-15 12:54 METAR KPHL 151754Z 04009G19KT 2SM RA BR OVC004 10/09 A3008 RMK AO2 SFC VIS 3
                 SLP185 CIG 003V005 P0007 60021 T01000094 10106 20089 56015 $ =

Support USWX by starting your Amazon purchase here.